Yigo, Guam
Current Conditions -  °F | °C
As of 7:51 PM on Friday 31 Oct 2014 (Local Time) from PGUA Reporting Station
Overcast Overcast  
Wind Chill: 77°   Ceiling: 1200
Heat Index: 78°   Visibility: 10mi
Dew Point: 75°   Wind: 6mph
Humidity: 94%   Direction: 70°ENE
Pressure: 29.81"   Gusts: NA
Location:  13.53°N, 144.89°E
Report Text: PGUA 310951Z AUTO 07005KT 10SM BKN012 OVC017 25/24 A2981 RMK AO2 DZB0927E0942 CIG 012V016 $
Loading
Personal Weather Stations






























Interactive Weather Map
Tropical Storm Tracking
New forecast layout! Learn more

10-Day Weather Forecast

Advertisements
Track Severe Weather on mobile